Time;durP1;ratioP1;P1;durP2;ratioP2;P2;SDS_P1;SDS_P2;PMS_P1;PMS_P2;Temp;Humidity;BMP_temperature;BMP_pressure;BME280_temperature;BME280_humidity;BME280_pressure;Samples;Min_cycle;Max_cycle;Signal;HPM_P1;HPM_P2
2021/04/19 00:01:03;;;;;;;21.30;11.48;;;;;;;6.61;79.23;102338.50;5072910;28;20489;-48
2021/04/19 00:03:30;;;;;;;22.25;11.70;;;;;;;6.60;79.53;102336.81;5072913;28;20513;-46
2021/04/19 00:05:57;;;;;;;20.75;11.80;;;;;;;6.58;79.32;102330.69;5073186;28;20040;-48
2021/04/19 00:08:25;;;;;;;21.23;12.32;;;;;;;6.57;79.34;102327.06;5062489;28;20067;-48
2021/04/19 00:10:52;;;;;;;21.83;11.30;;;;;;;6.53;79.70;102323.06;5072180;28;20101;-47
2021/04/19 00:13:19;;;;;;;22.23;11.98;;;;;;;6.51;79.37;102321.59;5073274;28;20036;-45
2021/04/19 00:15:47;;;;;;;21.70;11.15;;;;;;;6.49;79.65;102321.00;5073188;28;20418;-46
2021/04/19 00:18:14;;;;;;;21.63;12.15;;;;;;;6.48;80.10;102328.47;5072569;28;20184;-48
2021/04/19 00:20:42;;;;;;;23.90;12.93;;;;;;;6.46;80.00;102321.47;5072930;28;20052;-47
2021/04/19 00:23:09;;;;;;;25.70;14.02;;;;;;;6.43;79.97;102322.78;5072087;28;20464;-46
2021/04/19 00:25:36;;;;;;;20.27;10.93;;;;;;;6.42;80.30;102323.84;5072690;28;20044;-46
2021/04/19 00:28:03;;;;;;;20.50;12.85;;;;;;;6.38;80.33;102317.09;5072622;28;20057;-46
2021/04/19 00:30:30;;;;;;;21.08;10.90;;;;;;;6.37;80.79;102318.19;5073022;28;20131;-49
2021/04/19 00:32:57;;;;;;;21.75;11.43;;;;;;;6.36;80.64;102310.09;5071802;28;20052;-45
2021/04/19 00:35:25;;;;;;;20.95;10.77;;;;;;;6.34;80.60;102309.50;5072803;28;20051;-47
2021/04/19 00:37:52;;;;;;;17.42;8.65;;;;;;;6.31;80.63;102299.72;5071469;28;20592;-49
2021/04/19 00:40:20;;;;;;;17.48;10.27;;;;;;;6.30;80.70;102295.25;5072325;28;20059;-46
2021/04/19 00:42:49;;;;;;;19.63;11.25;;;;;;;6.27;80.89;102298.50;5072461;28;20086;-45
2021/04/19 00:45:17;;;;;;;25.02;13.35;;;;;;;6.25;81.09;102303.41;5054236;28;20072;-47
2021/04/19 00:47:45;;;;;;;20.20;9.90;;;;;;;6.22;80.94;102306.66;5072324;28;20045;-49
2021/04/19 00:50:18;;;;;;;20.23;11.40;;;;;;;6.21;80.97;102291.09;5072373;28;20045;-45
2021/04/19 00:52:47;;;;;;;18.70;9.48;;;;;;;6.17;81.12;102290.75;5053650;28;20041;-47
2021/04/19 00:55:16;;;;;;;23.00;12.65;;;;;;;6.16;81.17;102297.38;5072658;28;20071;-49
2021/04/19 00:57:44;;;;;;;24.67;12.70;;;;;;;6.15;81.13;102292.06;5072198;28;20044;-49
2021/04/19 01:00:14;;;;;;;20.73;12.63;;;;;;;6.12;81.12;102295.31;5071775;28;20052;-47
2021/04/19 01:02:42;;;;;;;23.65;12.35;;;;;;;6.10;81.02;102294.69;5071886;28;20041;-47
2021/04/19 01:05:15;;;;;;;15.82;8.45;;;;;;;6.07;81.11;102290.47;5054466;28;20183;-48
2021/04/19 01:07:43;;;;;;;;;;;;;;;6.00;81.35;102288.84;5071968;28;20145;-49
2021/04/19 01:10:13;;;;;;;18.15;9.80;;;;;;;5.97;81.61;102283.78;5072147;28;19925;-45
2021/04/19 01:12:40;;;;;;;11.80;7.13;;;;;;;6.00;81.70;102283.31;5071595;28;20052;-48
2021/04/19 01:15:09;;;;;;;17.23;9.82;;;;;;;6.00;81.50;102283.31;5053381;28;20044;-49
2021/04/19 01:17:41;;;;;;;23.58;11.63;;;;;;;5.98;81.47;102282.72;5054007;28;20280;-45
2021/04/19 01:20:10;;;;;;;24.35;11.68;;;;;;;5.97;81.32;102279.09;5071488;28;20048;-48
2021/04/19 01:22:40;;;;;;;20.80;11.48;;;;;;;5.95;81.65;102281.25;5070594;28;20049;-44
2021/04/19 01:25:09;;;;;;;19.30;10.23;;;;;;;5.94;81.61;102275.94;5071528;28;20051;-47
2021/04/19 01:27:36;;;;;;;17.52;8.63;;;;;;;5.92;81.91;102276.19;5071237;28;20070;-45
2021/04/19 01:30:06;;;;;;;21.75;10.88;;;;;;;5.92;82.08;102273.41;5053470;28;20048;-44
2021/04/19 01:32:35;;;;;;;19.02;9.82;;;;;;;5.91;82.01;102274.47;5053619;28;20098;-46
2021/04/19 01:35:03;;;;;;;19.90;10.73;;;;;;;5.92;82.11;102272.56;5052965;28;20058;-49
2021/04/19 01:37:32;;;;;;;19.80;10.82;;;;;;;5.92;81.91;102267.88;5053658;28;20044;-45
2021/04/19 01:40:01;;;;;;;19.13;10.38;;;;;;;5.92;82.11;102261.47;5070921;28;20071;-47
2021/04/19 01:42:28;;;;;;;19.52;10.07;;;;;;;5.92;82.27;102269.78;5052883;28;20071;-46
2021/04/19 01:44:55;;;;;;;14.48;8.30;;;;;;;5.92;82.22;102267.03;5071324;28;20090;-49
2021/04/19 01:47:22;;;;;;;17.52;9.43;;;;;;;5.91;82.28;102265.31;5071676;28;20056;-47
2021/04/19 01:49:49;;;;;;;25.33;12.82;;;;;;;5.87;82.13;102265.75;5070473;28;20048;-48
2021/04/19 01:52:16;;;;;;;19.17;11.68;;;;;;;5.85;81.99;102270.69;5071105;28;20044;-45
2021/04/19 01:54:43;;;;;;;20.92;10.70;;;;;;;5.82;82.23;102268.38;5071064;28;20044;-49
2021/04/19 01:57:11;;;;;;;19.67;11.02;;;;;;;5.81;82.34;102265.84;5070991;28;20076;-47
2021/04/19 01:59:40;;;;;;;14.82;8.60;;;;;;;5.78;82.50;102269.94;5053122;28;20058;-46
2021/04/19 02:02:21;;;;;;;20.58;11.43;;;;;;;5.76;82.57;102272.09;5053379;28;20044;-48
2021/04/19 02:04:56;;;;;;;23.00;12.38;;;;;;;5.76;82.29;102274.03;5071013;28;20151;-46
2021/04/19 02:07:31;;;;;;;23.13;12.35;;;;;;;5.73;82.64;102267.03;5060355;28;20052;-49
2021/04/19 02:10:06;;;;;;;20.25;10.77;;;;;;;5.72;82.42;102265.31;5070388;28;20044;-47
2021/04/19 02:12:42;;;;;;;19.40;11.05;;;;;;;5.72;82.38;102275.56;5060125;28;20048;-49
2021/04/19 02:15:16;;;;;;;16.20;10.02;;;;;;;5.71;82.40;102268.31;5071066;28;20172;-48
2021/04/19 02:17:54;;;;;;;23.67;13.23;;;;;;;5.67;82.52;102265.16;5042330;28;20408;-47
2021/04/19 02:20:35;;;;;;;19.05;10.05;;;;;;;5.68;82.60;102261.31;5070900;28;20076;-46
2021/04/19 02:23:07;;;;;;;15.88;9.02;;;;;;;5.67;82.55;102264.31;5061389;28;20052;-45
2021/04/19 02:25:40;;;;;;;19.30;10.95;;;;;;;5.67;82.89;102261.56;5070327;28;20038;-44
2021/04/19 02:28:13;;;;;;;16.73;8.52;;;;;;;5.68;82.64;102268.78;5052857;28;20098;-45
2021/04/19 02:30:44;;;;;;;16.38;8.27;;;;;;;5.67;82.89;102275.41;5052204;28;20048;-48
2021/04/19 02:33:15;;;;;;;21.08;11.15;;;;;;;5.66;83.02;102271.78;5052718;28;20086;-48
2021/04/19 02:35:45;;;;;;;16.63;9.57;;;;;;;5.64;82.87;102268.41;5070825;28;20466;-47
2021/04/19 02:38:17;;;;;;;19.15;9.43;;;;;;;5.64;82.95;102271.16;5070269;28;20143;-46
2021/04/19 02:40:46;;;;;;;16.20;8.48;;;;;;;5.63;83.15;102277.78;5070734;28;20063;-49
2021/04/19 02:43:15;;;;;;;17.42;9.98;;;;;;;5.63;83.11;102272.25;5072384;28;20101;-48
2021/04/19 02:45:44;;;;;;;17.35;10.55;;;;;;;5.62;83.27;102270.56;5056399;28;20052;-49
2021/04/19 02:48:23;;;;;;;16.42;9.80;;;;;;;5.62;83.13;102265.00;5070256;28;20390;-48
2021/04/19 02:50:57;;;;;;;15.15;8.77;;;;;;;5.62;83.43;102262.25;5074494;28;20052;-48
2021/04/19 02:53:25;;;;;;;17.38;10.00;;;;;;;5.63;83.47;102265.84;5074176;28;20044;-47
2021/04/19 02:55:53;;;;;;;21.20;9.65;;;;;;;5.61;83.60;102256.94;5075070;28;20048;-47
2021/04/19 02:58:29;;;;;;;16.65;8.50;;;;;;;5.61;83.74;102263.31;5056350;28;20145;-47
2021/04/19 03:00:58;;;;;;;16.95;8.60;;;;;;;5.60;83.66;102258.84;5057021;28;20277;-44
2021/04/19 03:03:29;;;;;;;14.48;6.93;;;;;;;5.61;83.64;102255.00;5074031;28;20037;-46
2021/04/19 03:06:05;;;;;;;16.42;8.93;;;;;;;5.62;83.73;102253.94;5074319;28;20052;-48
2021/04/19 03:08:37;;;;;;;;;;;;;;;5.59;84.24;102248.91;5073368;28;20056;-47
2021/04/19 03:11:10;;;;;;;14.82;7.57;;;;;;;5.58;84.68;102246.34;5074680;28;19920;-45
2021/04/19 03:13:41;;;;;;;17.20;9.03;;;;;;;5.63;84.22;102249.25;5073594;28;20037;-45
2021/04/19 03:16:21;;;;;;;19.10;8.98;;;;;;;5.65;84.29;102250.72;5056278;28;20084;-45
2021/04/19 03:18:50;;;;;;;19.70;8.55;;;;;;;5.69;84.19;102242.78;5056181;28;20520;-47
2021/04/19 03:21:20;;;;;;;17.13;8.63;;;;;;;5.72;84.43;102247.88;5074012;28;20306;-46
2021/04/19 03:24:14;;;;;;;16.45;8.15;;;;;;;5.71;84.35;102241.47;5063003;28;20137;-46
2021/04/19 03:27:01;;;;;;;16.65;9.55;;;;;;;5.71;84.44;102238.72;5073587;28;20064;-45
2021/04/19 03:29:35;;;;;;;17.63;8.73;;;;;;;5.73;84.47;102247.63;5056078;28;20182;-46
2021/04/19 03:32:15;;;;;;;18.33;7.75;;;;;;;5.74;84.77;102240.16;5074142;28;20052;-46
2021/04/19 03:34:47;;;;;;;17.70;8.88;;;;;;;5.76;84.84;102238.88;5054926;28;20049;-46
2021/04/19 03:37:23;;;;;;;18.95;7.75;;;;;;;5.76;84.68;102247.16;5056062;28;20151;-45
2021/04/19 03:39:54;;;;;;;13.07;6.47;;;;;;;5.76;84.64;102243.56;5073534;28;20505;-47
2021/04/19 03:42:25;;;;;;;14.77;7.75;;;;;;;5.75;84.74;102233.56;5055614;28;20057;-44
2021/04/19 03:44:55;;;;;;;15.25;7.93;;;;;;;5.73;85.09;102239.31;5073565;28;20064;-45
2021/04/19 03:47:44;;;;;;;16.98;10.00;;;;;;;5.72;84.91;102229.31;5073074;28;20541;-45
2021/04/19 03:50:29;;;;;;;14.40;7.68;;;;;;;5.73;85.30;102228.25;5058518;28;20495;-48
2021/04/19 03:52:59;;;;;;;11.30;6.32;;;;;;;5.76;85.07;102233.31;5073356;28;20055;-48
2021/04/19 03:55:27;;;;;;;16.00;8.25;;;;;;;5.78;85.18;102231.16;5054431;28;20493;-46
2021/04/19 03:57:57;;;;;;;17.50;9.00;;;;;;;5.77;85.11;102229.47;5055672;28;20040;-49
2021/04/19 04:00:40;;;;;;;16.95;8.43;;;;;;;5.76;85.27;102225.00;5055584;28;20051;-46
2021/04/19 04:03:25;;;;;;;15.98;7.60;;;;;;;5.78;85.53;102230.31;5072936;28;20052;-47
2021/04/19 04:06:12;;;;;;;18.35;9.82;;;;;;;5.79;85.31;102232.88;5072510;28;20052;-51
2021/04/19 04:08:42;;;;;;;16.55;9.02;;;;;;;5.82;85.43;102239.81;5055213;28;20558;-48
2021/04/19 04:11:12;;;;;;;17.95;9.48;;;;;;;5.82;85.58;102240.69;5054791;28;20049;-50
2021/04/19 04:13:42;;;;;;;17.77;8.73;;;;;;;5.85;85.78;102245.75;5055059;28;20045;-47
2021/04/19 04:16:11;;;;;;;22.58;10.38;;;;;;;5.87;85.67;102246.38;5072667;28;20044;-48
2021/04/19 04:18:59;;;;;;;18.50;9.48;;;;;;;5.86;85.94;102260.44;5072078;28;20103;-47
2021/04/19 04:21:29;;;;;;;17.95;8.98;;;;;;;5.87;85.80;102251.91;5071826;28;20382;-48
2021/04/19 04:24:04;;;;;;;20.45;11.02;;;;;;;5.88;85.93;102248.09;5052508;28;20482;-50
2021/04/19 04:26:31;;;;;;;18.90;9.98;;;;;;;5.91;86.16;102254.25;5072633;28;20052;-49
2021/04/19 04:28:59;;;;;;;17.60;9.52;;;;;;;5.92;86.08;102258.72;5054272;28;20048;-48
2021/04/19 04:31:31;;;;;;;18.77;9.93;;;;;;;5.92;86.33;102258.72;5071881;28;20032;-46
2021/04/19 04:34:06;;;;;;;20.77;9.38;;;;;;;5.89;86.04;102262.78;5054519;28;20052;-49
2021/04/19 04:36:34;;;;;;;22.63;11.98;;;;;;;5.90;86.02;102260.88;5053713;28;20048;-50
2021/04/19 04:39:07;;;;;;;19.15;11.05;;;;;;;5.88;86.31;102247.22;5053207;28;20105;-47
2021/04/19 04:41:44;;;;;;;18.67;10.05;;;;;;;5.88;86.57;102250.88;5053133;28;20044;-48
2021/04/19 04:44:16;;;;;;;20.67;10.20;;;;;;;5.90;86.34;102249.78;5072256;28;20432;-47
2021/04/19 04:46:52;;;;;;;19.05;10.15;;;;;;;5.90;86.60;102244.25;5072365;28;20057;-49
2021/04/19 04:49:23;;;;;;;20.73;11.55;;;;;;;5.88;86.37;102242.56;5073008;28;20052;-50
2021/04/19 04:51:52;;;;;;;18.63;10.13;;;;;;;5.88;86.33;102237.00;5053802;28;20451;-47
2021/04/19 04:54:21;;;;;;;17.30;8.65;;;;;;;5.90;86.53;102238.69;5072308;28;20157;-46
2021/04/19 04:56:51;;;;;;;20.40;10.27;;;;;;;5.91;86.42;102240.41;5072100;28;20048;-51
2021/04/19 04:59:19;;;;;;;16.63;9.82;;;;;;;5.92;86.50;102239.31;5071569;28;20151;-46
2021/04/19 05:01:48;;;;;;;19.85;10.35;;;;;;;5.94;86.72;102242.69;5054163;28;20417;-52
2021/04/19 05:04:15;;;;;;;22.90;12.70;;;;;;;5.95;86.42;102242.47;5054325;28;20395;-48
2021/04/19 05:06:44;;;;;;;14.65;8.18;;;;;;;5.98;86.58;102239.22;5070297;28;20051;-48
2021/04/19 05:09:11;;;;;;;23.10;11.32;;;;;;;6.00;86.76;102234.28;5072327;28;20040;-50
2021/04/19 05:11:38;;;;;;;21.92;12.25;;;;;;;6.02;86.61;102231.28;5071701;28;20497;-49
2021/04/19 05:14:05;;;;;;;22.85;12.52;;;;;;;6.05;86.73;102239.97;5071338;28;20550;-49
2021/04/19 05:16:33;;;;;;;17.17;8.93;;;;;;;6.09;86.84;102243.13;5071492;28;20452;-49
2021/04/19 05:19:02;;;;;;;23.15;11.60;;;;;;;6.10;86.73;102237.34;5071762;28;20051;-46
2021/04/19 05:21:29;;;;;;;17.08;9.43;;;;;;;6.12;86.79;102237.94;5071137;28;20040;-48
2021/04/19 05:23:57;;;;;;;16.15;8.50;;;;;;;6.17;86.64;102242.78;5071796;28;20044;-46
2021/04/19 05:26:25;;;;;;;23.40;12.32;;;;;;;6.20;86.79;102239.53;5070852;28;20141;-50
2021/04/19 05:28:52;;;;;;;21.30;10.77;;;;;;;6.23;86.78;102242.66;5071615;28;20049;-51
2021/04/19 05:31:19;;;;;;;21.60;11.75;;;;;;;6.28;86.59;102247.50;5071372;28;20044;-47
2021/04/19 05:33:47;;;;;;;23.13;12.10;;;;;;;6.32;87.13;102240.41;5070827;28;20063;-46
2021/04/19 05:36:16;;;;;;;23.77;12.13;;;;;;;6.37;86.67;102240.56;5071461;28;20049;-53
2021/04/19 05:38:45;;;;;;;18.92;10.15;;;;;;;6.43;86.86;102234.03;5071141;28;20490;-47
2021/04/19 05:41:12;;;;;;;17.77;9.13;;;;;;;6.49;86.65;102237.78;5071075;28;20397;-48
2021/04/19 05:43:41;;;;;;;27.75;14.38;;;;;;;6.56;87.15;102242.16;5071015;28;20608;-49
2021/04/19 05:46:09;;;;;;;22.50;12.02;;;;;;;6.64;86.84;102245.66;5071321;28;20110;-49
2021/04/19 05:48:36;;;;;;;26.65;13.82;;;;;;;6.70;86.67;102242.78;5070716;28;20052;-49
2021/04/19 05:51:09;;;;;;;24.52;13.82;;;;;;;6.75;87.09;102245.69;5071324;28;20346;-48
2021/04/19 05:53:37;;;;;;;24.30;11.95;;;;;;;6.84;86.87;102243.38;5071036;28;20041;-49
2021/04/19 05:56:12;;;;;;;26.75;13.38;;;;;;;6.90;87.11;102247.97;5070597;28;20045;-46
2021/04/19 05:58:48;;;;;;;25.73;12.90;;;;;;;6.97;87.23;102248.72;5070813;28;20409;-47
2021/04/19 06:01:19;;;;;;;28.60;15.98;;;;;;;7.03;87.16;102238.56;5071308;28;20056;-49
2021/04/19 06:03:54;;;;;;;27.25;13.80;;;;;;;7.10;87.03;102242.06;5070901;28;20036;-47
2021/04/19 06:06:31;;;;;;;21.95;12.27;;;;;;;7.16;87.29;102247.50;5071167;28;20059;-46
2021/04/19 06:09:03;;;;;;;25.52;15.15;;;;;;;7.23;87.48;102242.63;5052113;28;20060;-50
2021/04/19 06:12:07;;;;;;;26.42;14.45;;;;;;;7.31;87.81;102247.00;5028007;28;20057;-49
2021/04/19 06:14:42;;;;;;;25.80;14.13;;;;;;;7.40;87.34;102247.44;5069007;28;20529;-47
2021/04/19 06:17:11;;;;;;;22.63;12.27;;;;;;;7.47;87.44;102245.38;5070281;28;20102;-45
2021/04/19 06:19:44;;;;;;;24.15;11.95;;;;;;;7.54;87.56;102244.16;5070667;28;20048;-47
2021/04/19 06:22:14;;;;;;;22.45;13.00;;;;;;;7.59;87.42;102238.69;5051075;28;20390;-47
2021/04/19 06:24:47;;;;;;;28.63;13.38;;;;;;;7.67;87.51;102239.41;5065596;28;20044;-47
2021/04/19 06:27:18;;;;;;;20.75;11.20;;;;;;;7.73;87.29;102238.44;5070568;28;20459;-50
2021/04/19 06:29:45;;;;;;;28.92;13.90;;;;;;;7.76;87.14;102238.78;5069804;28;20409;-48
2021/04/19 06:32:13;;;;;;;24.40;13.43;;;;;;;7.82;87.09;102232.22;5070852;28;20048;-51
2021/04/19 06:34:41;;;;;;;28.02;14.27;;;;;;;7.86;87.33;102227.03;5070260;28;20084;-50
2021/04/19 06:37:08;;;;;;;23.35;12.35;;;;;;;7.90;87.29;102233.78;5070445;28;20044;-49
2021/04/19 06:39:36;;;;;;;20.23;12.70;;;;;;;7.93;87.30;102231.34;5070522;28;20151;-47
2021/04/19 06:42:04;;;;;;;25.40;14.73;;;;;;;8.00;87.41;102235.91;5070583;28;20044;-51
2021/04/19 06:44:31;;;;;;;28.00;13.18;;;;;;;8.06;87.62;102237.69;5069575;28;20045;-47
2021/04/19 06:46:58;;;;;;;27.23;14.90;;;;;;;8.14;87.37;102242.88;5070776;28;20072;-46
2021/04/19 06:49:26;;;;;;;26.15;14.98;;;;;;;8.30;87.52;102242.06;5070385;28;20068;-50
2021/04/19 06:51:55;;;;;;;29.67;16.00;;;;;;;8.46;87.37;102232.06;5070111;28;20464;-50
2021/04/19 06:54:23;;;;;;;31.33;15.98;;;;;;;8.64;87.74;102234.59;5070381;28;20512;-50
2021/04/19 06:56:51;;;;;;;31.00;16.38;;;;;;;8.88;87.75;102236.13;5070476;28;20052;-50
2021/04/19 06:59:20;;;;;;;31.73;15.18;;;;;;;9.14;87.40;102237.38;5069995;28;20468;-48
2021/04/19 07:01:50;;;;;;;33.35;16.88;;;;;;;9.47;87.41;102225.28;5067411;28;20052;-48
2021/04/19 07:04:20;;;;;;;31.10;17.08;;;;;;;9.88;87.29;102225.78;5070195;28;20053;-53
2021/04/19 07:06:48;;;;;;;32.17;17.35;;;;;;;10.28;86.59;102225.41;5068969;28;20080;-52
2021/04/19 07:09:21;;;;;;;29.95;15.77;;;;;;;10.63;85.57;102219.28;5070476;28;20102;-49
2021/04/19 07:11:53;;;;;;;25.35;14.43;;;;;;;10.96;84.76;102218.19;5069678;28;20055;-50
2021/04/19 07:14:23;;;;;;;23.85;14.70;;;;;;;11.22;84.06;102210.78;5070325;28;20505;-47
2021/04/19 07:16:50;;;;;;;30.25;16.20;;;;;;;11.48;83.27;102214.56;5069923;28;20143;-48
2021/04/19 07:19:19;;;;;;;27.00;15.07;;;;;;;11.68;82.46;102209.91;5069966;28;20056;-48
2021/04/19 07:21:47;;;;;;;24.20;13.27;;;;;;;11.83;81.58;102217.53;5069948;28;20045;-49
2021/04/19 07:24:14;;;;;;;28.13;13.90;;;;;;;12.01;81.24;102210.59;5050834;28;20049;-51
2021/04/19 07:26:42;;;;;;;24.38;13.52;;;;;;;12.17;80.36;102209.53;5064161;28;20135;-47
2021/04/19 07:29:10;;;;;;;23.67;13.88;;;;;;;12.30;79.78;102217.38;5070207;28;20040;-47
2021/04/19 07:31:49;;;;;;;23.95;14.43;;;;;;;12.37;78.67;102212.34;5073704;28;20396;-49
2021/04/19 07:34:17;;;;;;;21.67;13.45;;;;;;;12.49;78.58;102212.06;5073370;28;20044;-47
2021/04/19 07:36:49;;;;;;;22.00;12.98;;;;;;;12.63;78.00;102215.97;5073654;28;20052;-49
2021/04/19 07:39:18;;;;;;;21.30;12.35;;;;;;;12.74;77.64;102214.88;5073663;28;20485;-51
2021/04/19 07:41:47;;;;;;;23.60;13.15;;;;;;;12.84;76.48;102210.38;5073150;28;20053;-48
2021/04/19 07:44:36;;;;;;;22.55;13.80;;;;;;;12.97;75.86;102207.84;5073957;28;20048;-51
2021/04/19 07:47:31;;;;;;;26.70;14.73;;;;;;;12.83;72.80;102209.53;5072806;28;20052;-48
2021/04/19 07:50:01;;;;;;;21.75;12.55;;;;;;;12.81;73.71;102206.16;5073792;28;20102;-48
2021/04/19 07:52:29;;;;;;;24.25;13.60;;;;;;;12.89;73.50;102204.78;5073144;28;20494;-50
2021/04/19 07:55:08;;;;;;;19.80;13.02;;;;;;;12.99;72.84;102211.19;5072956;28;20045;-50
2021/04/19 07:57:55;;;;;;;22.25;14.00;;;;;;;13.10;72.13;102212.03;5073459;28;20128;-48
2021/04/19 08:00:25;;;;;;;21.88;14.32;;;;;;;13.14;71.81;102199.13;5073569;28;20061;-47
2021/04/19 08:03:01;;;;;;;21.67;13.57;;;;;;;13.28;71.59;102210.63;5072705;28;20072;-47
2021/04/19 08:05:37;;;;;;;22.05;12.90;;;;;;;13.26;70.67;102202.47;5073467;28;20045;-52
2021/04/19 08:08:05;;;;;;;23.10;13.90;;;;;;;13.48;70.61;102198.50;5073010;28;20049;-52
2021/04/19 08:10:33;;;;;;;16.38;11.38;;;;;;;13.60;68.77;102202.63;5073345;28;20059;-50
2021/04/19 08:13:03;;;;;;;19.92;13.10;;;;;;;13.62;68.86;102208.81;5054934;28;20113;-48
2021/04/19 08:15:30;;;;;;;20.02;12.77;;;;;;;13.73;68.13;102204.84;5072781;28;20405;-48
2021/04/19 08:18:02;;;;;;;17.50;12.30;;;;;;;13.74;67.48;102209.31;5072854;28;20048;-52
2021/04/19 08:20:29;;;;;;;;;;;;;;;13.76;64.89;102209.03;5073680;28;20457;-50
2021/04/19 08:23:08;;;;;;;18.42;10.10;;;;;;;13.94;67.25;102201.94;5072379;28;19979;-48
2021/04/19 08:25:38;;;;;;;17.85;11.77;;;;;;;13.98;65.82;102215.09;5073257;28;20041;-50
2021/04/19 08:28:07;;;;;;;17.25;11.20;;;;;;;14.02;65.61;102209.72;5072537;28;20044;-47
2021/04/19 08:30:35;;;;;;;17.27;12.07;;;;;;;14.18;64.94;102213.31;5072285;28;20440;-48
2021/04/19 08:33:05;;;;;;;16.45;11.38;;;;;;;14.47;64.52;102205.81;5072866;28;20075;-48
2021/04/19 08:35:32;;;;;;;17.17;11.27;;;;;;;14.70;63.80;102209.84;5072785;28;20490;-46
2021/04/19 08:38:02;;;;;;;20.45;11.77;;;;;;;14.75;62.74;102207.84;5071893;28;20048;-51
2021/04/19 08:40:31;;;;;;;16.23;11.70;;;;;;;15.04;62.30;102215.41;5061730;28;20052;-46
2021/04/19 08:42:59;;;;;;;16.65;11.85;;;;;;;15.42;61.45;102210.78;5054423;28;20481;-51
2021/04/19 08:45:27;;;;;;;15.10;12.02;;;;;;;15.82;60.30;102206.66;5071982;28;20521;-49
2021/04/19 08:48:00;;;;;;;16.92;11.43;;;;;;;16.30;59.10;102203.72;5072373;28;20063;-52
2021/04/19 08:50:28;;;;;;;17.13;10.57;;;;;;;16.62;57.92;102200.94;5072037;28;20076;-48
2021/04/19 08:52:57;;;;;;;16.42;10.10;;;;;;;16.78;56.20;102199.59;5072289;28;20524;-54
2021/04/19 08:55:25;;;;;;;16.83;10.93;;;;;;;16.87;56.37;102197.72;5071564;28;20482;-50
2021/04/19 08:57:53;;;;;;;15.93;11.73;;;;;;;17.14;55.87;102207.41;5072008;28;20139;-49
2021/04/19 09:00:23;;;;;;;17.38;11.70;;;;;;;17.48;55.42;102202.19;5071936;28;20106;-51
2021/04/19 09:02:50;;;;;;;17.15;11.75;;;;;;;17.62;54.09;102201.34;5072510;28;20059;-49
2021/04/19 09:05:19;;;;;;;16.73;11.27;;;;;;;17.67;53.34;102204.09;5071746;28;20476;-50
2021/04/19 09:07:49;;;;;;;16.20;11.13;;;;;;;17.61;53.54;102206.16;5072304;28;20409;-50
2021/04/19 09:10:17;;;;;;;16.00;10.15;;;;;;;17.86;53.71;102213.28;5071805;28;20123;-48
2021/04/19 09:12:46;;;;;;;13.90;10.35;;;;;;;18.06;52.65;102204.38;5071655;28;20064;-48
2021/04/19 09:15:18;;;;;;;15.57;10.30;;;;;;;18.19;52.59;102200.66;5071904;28;20041;-49
2021/04/19 09:18:01;;;;;;;14.52;10.52;;;;;;;18.30;50.93;102208.91;5072023;28;20413;-52
2021/04/19 09:20:44;;;;;;;15.27;9.30;;;;;;;18.17;51.90;102214.31;5071259;28;20048;-49
2021/04/19 09:23:28;;;;;;;14.45;10.50;;;;;;;18.16;51.90;102209.81;5052175;28;20068;-52
2021/04/19 09:25:56;;;;;;;16.92;11.00;;;;;;;18.06;52.20;102201.53;5067054;28;20048;-51
2021/04/19 09:28:51;;;;;;;18.00;10.55;;;;;;;17.87;50.78;102207.34;5071674;28;20040;-52
2021/04/19 09:31:18;;;;;;;15.88;11.52;;;;;;;17.92;51.85;102208.38;5071503;28;20438;-49
2021/04/19 09:33:47;;;;;;;13.30;10.82;;;;;;;17.89;52.61;102205.03;5071257;28;20139;-49
2021/04/19 09:36:14;;;;;;;15.40;10.88;;;;;;;18.22;51.51;102213.31;5071364;28;20044;-46
2021/04/19 09:38:51;;;;;;;17.77;11.85;;;;;;;18.22;51.51;102204.84;5071747;28;20090;-49
2021/04/19 09:41:21;;;;;;;13.18;9.80;;;;;;;18.43;50.98;102202.38;5056118;28;20045;-55
2021/04/19 09:43:54;;;;;;;15.00;10.45;;;;;;;18.43;51.21;102208.03;5071741;28;20135;-46
2021/04/19 09:46:28;;;;;;;15.70;10.40;;;;;;;18.82;50.77;102208.19;5071651;28;20492;-46
2021/04/19 09:48:59;;;;;;;14.07;8.90;;;;;;;19.08;49.90;102210.34;5071399;28;20502;-46
2021/04/19 09:51:36;;;;;;;16.13;10.90;;;;;;;19.37;48.90;102210.69;5070828;28;20044;-58
2021/04/19 09:54:10;;;;;;;12.93;9.45;;;;;;;19.46;49.20;102200.22;5070597;28;20056;-47
2021/04/19 09:56:40;;;;;;;14.43;9.95;;;;;;;19.84;48.27;102211.03;5071152;28;20044;-47
2021/04/19 09:59:08;;;;;;;12.65;9.77;;;;;;;19.85;47.52;102207.03;5071482;28;20499;-53
2021/04/19 10:01:37;;;;;;;14.05;10.02;;;;;;;19.81;47.08;102208.84;5070327;28;20052;-48
2021/04/19 10:04:05;;;;;;;12.70;9.32;;;;;;;19.53;47.58;102202.63;5071159;28;20055;-52
2021/04/19 10:06:39;;;;;;;13.25;9.10;;;;;;;19.50;47.09;102197.59;5070611;28;20049;-49
2021/04/19 10:09:11;;;;;;;11.38;8.73;;;;;;;19.47;47.46;102193.41;5070912;28;20052;-47
2021/04/19 10:11:42;;;;;;;14.57;9.13;;;;;;;19.12;47.28;102205.72;5070737;28;20040;-48
2021/04/19 10:14:11;;;;;;;16.10;9.95;;;;;;;19.09;48.22;102197.88;5071176;28;20556;-49
2021/04/19 10:16:46;;;;;;;12.55;9.10;;;;;;;19.17;47.75;102203.59;5070047;28;20057;-49
2021/04/19 10:19:23;;;;;;;15.77;10.02;;;;;;;19.43;47.11;102195.22;5071113;28;20417;-52
2021/04/19 10:21:57;;;;;;;13.90;9.40;;;;;;;19.93;46.70;102192.91;5070389;28;20108;-48
2021/04/19 10:24:25;;;;;;;12.93;9.48;;;;;;;20.22;45.28;102186.59;5071004;28;20056;-47
2021/04/19 10:26:52;;;;;;;13.75;10.50;;;;;;;20.41;45.44;102194.81;5070532;28;20076;-47
2021/04/19 10:29:20;;;;;;;14.35;8.63;;;;;;;20.43;44.57;102191.63;5070202;28;20052;-52
2021/04/19 10:31:53;;;;;;;12.18;9.85;;;;;;;20.52;43.49;102187.66;5052934;28;20342;-47
2021/04/19 10:34:22;;;;;;;13.40;9.23;;;;;;;20.63;44.15;102193.78;5060282;28;20057;-51
2021/04/19 10:36:52;;;;;;;13.00;9.38;;;;;;;20.38;44.72;102186.16;5070053;28;20052;-48
2021/04/19 10:39:21;;;;;;;12.40;9.40;;;;;;;20.63;44.01;102179.63;5070535;28;20053;-51
2021/04/19 10:41:51;;;;;;;10.82;8.95;;;;;;;21.06;42.95;102178.69;5070276;28;20044;-50
2021/04/19 10:44:25;;;;;;;12.13;8.73;;;;;;;21.18;43.00;102184.53;5070314;28;20045;-48
2021/04/19 10:46:55;;;;;;;10.93;7.88;;;;;;;21.26;42.62;102186.50;5070615;28;20577;-51
2021/04/19 10:49:25;;;;;;;11.63;8.18;;;;;;;21.10;42.64;102179.69;5070557;28;20060;-47
2021/04/19 10:51:54;;;;;;;9.80;7.90;;;;;;;20.58;43.32;102179.81;5069833;28;20045;-49
2021/04/19 10:54:27;;;;;;;10.52;7.82;;;;;;;20.11;43.79;102178.75;5069250;28;20045;-48
2021/04/19 10:56:55;;;;;;;11.57;8.90;;;;;;;19.83;45.59;102181.03;5069975;28;20448;-47
2021/04/19 10:59:23;;;;;;;11.77;8.20;;;;;;;20.19;44.93;102183.59;5070353;28;20086;-49
2021/04/19 11:01:58;;;;;;;12.40;7.90;;;;;;;20.43;43.84;102177.47;5067317;28;20962;-53
2021/04/19 11:04:26;;;;;;;12.98;8.52;;;;;;;20.57;43.69;102175.31;5070790;28;20098;-49
2021/04/19 11:06:55;;;;;;;11.13;8.20;;;;;;;20.36;43.63;102166.59;5074248;28;20055;-48
2021/04/19 11:09:27;;;;;;;11.45;8.27;;;;;;;20.17;44.18;102164.09;5074243;28;20048;-48
2021/04/19 11:11:54;;;;;;;11.82;8.27;;;;;;;20.20;44.73;102171.09;5053866;28;20059;-47
2021/04/19 11:14:23;;;;;;;11.20;7.55;;;;;;;20.42;43.92;102172.94;5069784;28;20076;-48
2021/04/19 11:16:52;;;;;;;10.23;7.65;;;;;;;20.62;43.44;102169.44;5073817;28;20497;-49
2021/04/19 11:19:36;;;;;;;11.40;9.02;;;;;;;20.50;43.22;102164.44;5073000;28;20379;-50
2021/04/19 11:22:24;;;;;;;10.40;8.35;;;;;;;20.57;43.72;102164.78;5074309;28;20159;-52
2021/04/19 11:25:13;;;;;;;9.88;8.05;;;;;;;20.30;42.96;102168.75;5055019;28;20449;-48
2021/04/19 11:27:41;;;;;;;10.55;7.95;;;;;;;20.23;44.16;102168.41;5073795;28;20059;-48
2021/04/19 11:30:23;;;;;;;10.80;7.93;;;;;;;19.82;43.70;102173.69;5073522;28;20059;-49
2021/04/19 11:33:05;;;;;;;9.75;7.55;;;;;;;19.67;45.09;102177.00;5073433;28;20052;-50
2021/04/19 11:35:37;;;;;;;11.85;8.07;;;;;;;19.62;44.85;102163.81;5073500;28;20044;-49